Time;durP1;ratioP1;P1;durP2;ratioP2;P2;SDS_P1;SDS_P2;PMS_P1;PMS_P2;Temp;Humidity;BMP_temperature;BMP_pressure;BME280_temperature;BME280_humidity;BME280_pressure;Samples;Min_cycle;Max_cycle;Signal;HPM_P1;HPM_P2
2021/06/13 00:01:12;;;;;;;3.78;3.22;;;;;;;;;;4916953;29;20089;-44
2021/06/13 00:03:38;;;;;;;4.03;3.15;;;;;;;;;;4915669;29;20031;-44
2021/06/13 00:06:05;;;;;;;3.50;2.97;;;;;;;;;;4915537;29;20058;-44
2021/06/13 00:08:31;;;;;;;5.53;3.42;;;;;;;;;;4915250;29;20024;-44
2021/06/13 00:14:02;;;;;;;4.57;3.33;;;;;;;;;;4915072;29;20067;-44
2021/06/13 00:16:28;;;;;;;3.78;3.15;;;;;;;;;;4914544;29;20073;-45
2021/06/13 00:18:54;;;;;;;4.80;3.83;;;;;;;;;;4914739;29;20024;-44
2021/06/13 00:21:20;;;;;;;4.28;3.50;;;;;;;;;;4913159;29;20068;-44
2021/06/13 00:23:46;;;;;;;4.72;3.40;;;;;;;;;;4909963;29;20024;-45
2021/06/13 00:26:12;;;;;;;3.53;3.08;;;;;;;;;;4908461;29;20461;-44
2021/06/13 00:28:38;;;;;;;4.50;3.45;;;;;;;;;;4914386;29;20119;-44
2021/06/13 00:31:05;;;;;;;5.00;3.30;;;;;;;;;;4914282;29;20560;-46
2021/06/13 00:33:31;;;;;;;4.20;3.22;;;;;;;;;;4909342;29;20020;-45
2021/06/13 00:35:57;;;;;;;3.90;3.03;;;;;;;;;;4912479;29;20074;-46
2021/06/13 00:38:23;;;;;;;4.70;2.92;;;;;;;;;;4910924;29;20039;-42
2021/06/13 00:40:50;;;;;;;3.45;3.10;;;;;;;;;;4912919;29;20037;-44
2021/06/13 00:43:16;;;;;;;5.13;3.53;;;;;;;;;;4912818;29;20028;-45
2021/06/13 00:45:42;;;;;;;3.95;3.45;;;;;;;;;;4905917;29;20024;-46
2021/06/13 00:48:09;;;;;;;4.63;3.78;;;;;;;;;;4915484;29;20024;-45
2021/06/13 00:50:38;;;;;;;5.47;4.00;;;;;;;;;;4913895;29;20043;-44
2021/06/13 00:53:05;;;;;;;4.35;3.50;;;;;;;;;;4914146;29;20032;-43
2021/06/13 00:55:31;;;;;;;5.57;4.22;;;;;;;;;;4925721;29;20042;-44
2021/06/13 00:57:57;;;;;;;5.15;3.53;;;;;;;;;;4914881;29;20111;-43
2021/06/13 01:00:23;;;;;;;4.35;3.53;;;;;;;;;;4914048;29;20035;-43
2021/06/13 01:02:50;;;;;;;4.75;3.55;;;;;;;;;;4914027;29;20103;-43
2021/06/13 01:05:16;;;;;;;4.75;3.53;;;;;;;;;;4916354;29;20028;-43
2021/06/13 21:31:46;;;;;;;1.70;1.20;;;;;;;;;;5563113;23;20273;-51
2021/06/13 21:34:12;;;;;;;2.15;1.08;;;;;;;;;;4949349;29;20102;-54
2021/06/13 21:36:38;;;;;;;1.97;1.03;;;;;;;;;;4951139;29;20029;-52
2021/06/13 21:39:05;;;;;;;4.43;1.02;;;;;;;;;;4951067;29;20118;-51
2021/06/13 21:41:32;;;;;;;2.03;1.17;;;;;;;;;;4941726;29;20463;-51
2021/06/13 21:43:58;;;;;;;1.23;0.85;;;;;;;;;;4949787;29;20034;-50
2021/06/13 21:46:24;;;;;;;1.20;0.85;;;;;;;;;;4951232;29;20035;-53
2021/06/13 21:48:50;;;;;;;1.67;0.70;;;;;;;;;;4945030;29;20031;-50
2021/06/13 21:51:19;;;;;;;2.77;0.80;;;;;;;;;;4951483;29;20126;-52
2021/06/13 21:53:51;;;;;;;2.30;0.80;;;;;;;;;;4951506;29;20034;-52
2021/06/13 21:56:21;;;;;;;1.02;0.52;;;;;;;;;;4945040;29;20366;-52
2021/06/13 21:58:47;;;;;;;0.98;0.60;;;;;;;;;;4943779;29;20035;-51
2021/06/13 22:01:14;;;;;;;0.97;0.47;;;;;;;;;;4945120;29;20488;-53
2021/06/13 22:03:47;;;;;;;1.73;0.45;;;;;;;;;;4934782;29;20031;-52
